Ana Sayfa
METAR-TAF:

METAR-TAF

Havaalanları :

Wilkes County Airport

North Wilkesboro, Kuzey Carolina, Amerika Birleşik Devletleri

Enlem: 36-13N, Boylam: 081-05W, yükseklik: 396 m

Güncel hava durumu gözlemi

Rapor saat 20:00 UTC de 18 dakika önce yapıldı.
Rüzgar güneydan 11 kt ve 17 kt'a kadar ani rüzgarlar
Sıcaklık 28°C
Nem 55%
Basınç 1018 hPa
Görüş mesafesi: 16.1 km
5000 ft yükseklikte parçalı bulutlu

METAR: KUKF 192000Z AUTO 19011G17KT 10SM SCT050 28/18 A3005 RMK AO2

Saat: 16:18 (20:18 UTC)


TAF: eksik

4.000'den fazla havaalanı için hava durumu gözlemleri ve tahminleri (METAR ve TAF raporları).

Kullanılabilir istasyonlar harita üzerinde sarı ve kırmızı noktalarla gösterilir.

İstasyonun adını görmek için fareyi noktanın üzerinde gezdirin.

Sonrasında hava gözlem ve tahminlerini görmek için tıklayın.

Haritayı değiştirmek için: yaklaştırmak için siyah artı işaretli yeşil düğmeye ve uzaklaştırmak için de eksi işaretli düğmeye hızla tıklayın; bitişik haritalar için yeşil okları kullanın.


METAR-TAF: